Time;durP1;ratioP1;P1;durP2;ratioP2;P2;SDS_P1;SDS_P2;PMS_P1;PMS_P2;Temp;Humidity;BMP_temperature;BMP_pressure;BME280_temperature;BME280_humidity;BME280_pressure;Samples;Min_cycle;Max_cycle;Signal;HPM_P1;HPM_P2
2021/10/21 00:02:00;;;;;;;9.43;5.70;;;14.20;99.90;;;;;;5111466;27;20437;-87
2021/10/21 00:04:26;;;;;;;14.48;5.68;;;14.30;99.90;;;;;;5095734;28;20057;-88
2021/10/21 00:06:51;;;;;;;9.93;4.70;;;14.40;99.90;;;;;;5107087;28;20073;-88
2021/10/21 00:09:17;;;;;;;9.20;4.40;;;14.50;99.90;;;;;;5087592;28;20027;-87
2021/10/21 00:11:42;;;;;;;10.10;4.15;;;14.60;99.90;;;;;;5077547;28;20499;-86
2021/10/21 00:14:09;;;;;;;10.02;4.05;;;14.60;99.90;;;;;;5094712;28;20084;-85
2021/10/21 00:16:34;;;;;;;13.88;3.40;;;14.60;99.90;;;;;;5081534;28;20119;-85
2021/10/21 00:19:00;;;;;;;11.55;3.78;;;14.60;99.90;;;;;;5080754;28;20066;-85
2021/10/21 00:21:25;;;;;;;7.88;4.40;;;14.50;99.90;;;;;;5109045;28;20369;-86
2021/10/21 00:23:51;;;;;;;7.57;3.03;;;14.50;99.90;;;;;;5092005;28;20054;-87
2021/10/21 00:26:17;;;;;;;5.63;1.95;;;14.50;99.90;;;;;;5107929;28;20036;-85
2021/10/21 00:28:42;;;;;;;6.88;2.60;;;14.40;99.90;;;;;;5078895;28;20028;-85
2021/10/21 00:31:08;;;;;;;2.75;1.10;;;14.40;99.90;;;;;;5110332;28;20024;-84
2021/10/21 00:33:34;;;;;;;3.95;1.60;;;14.40;99.90;;;;;;5092634;28;20058;-84
2021/10/21 00:35:59;;;;;;;9.32;1.73;;;14.40;99.90;;;;;;5093485;28;20073;-84
2021/10/21 00:38:25;;;;;;;4.05;1.90;;;14.40;99.90;;;;;;5093835;28;20024;-85
2021/10/21 00:40:51;;;;;;;4.82;2.13;;;14.40;99.90;;;;;;5101481;28;20054;-85
2021/10/21 00:43:16;;;;;;;4.15;2.53;;;14.40;99.90;;;;;;5084843;28;20055;-84
2021/10/21 00:45:42;;;;;;;6.63;2.58;;;14.50;99.90;;;;;;5084320;28;20028;-84
2021/10/21 00:48:08;;;;;;;6.57;3.78;;;14.50;99.90;;;;;;5096326;28;20085;-84
2021/10/21 00:50:36;;;;;;;5.20;2.30;;;14.60;99.90;;;;;;5088592;28;20550;-84
2021/10/21 00:53:03;;;;;;;4.35;2.08;;;14.60;99.90;;;;;;5102908;28;20758;-84
2021/10/21 00:55:30;;;;;;;5.68;2.00;;;14.70;99.90;;;;;;5083344;28;20373;-85
2021/10/21 00:57:56;;;;;;;5.38;1.60;;;14.70;99.90;;;;;;5113551;28;20044;-84
2021/10/21 01:00:21;;;;;;;4.38;1.20;;;14.80;99.90;;;;;;5095953;28;20082;-84
2021/10/21 01:02:47;;;;;;;2.70;1.00;;;14.80;99.90;;;;;;5088962;28;20417;-84
2021/10/21 01:05:13;;;;;;;7.47;0.85;;;14.80;99.90;;;;;;5094795;28;20027;-83
2021/10/21 01:07:39;;;;;;;2.95;0.85;;;14.80;99.90;;;;;;5107116;28;20031;-83
2021/10/21 01:10:07;;;;;;;2.47;0.60;;;14.90;99.90;;;;;;5084532;28;20508;-83
2021/10/21 01:12:32;;;;;;;3.08;0.85;;;14.80;99.90;;;;;;5113628;28;20505;-83
2021/10/21 01:15:23;;;;;;;2.85;0.70;;;14.80;99.90;;;;;;5109529;28;20157;-83
2021/10/21 01:17:52;;;;;;;3.13;0.70;;;14.80;99.90;;;;;;5103747;28;20479;-83
2021/10/21 01:20:19;;;;;;;2.42;0.60;;;14.70;99.90;;;;;;5098609;28;20031;-83
2021/10/21 01:22:46;;;;;;;1.20;0.50;;;14.70;99.90;;;;;;5114309;28;20035;-83
2021/10/21 01:25:13;;;;;;;3.70;0.70;;;14.70;99.90;;;;;;5108182;28;20495;-83
2021/10/21 01:27:40;;;;;;;5.03;0.77;;;14.60;99.90;;;;;;5113046;28;20028;-83
2021/10/21 01:30:06;;;;;;;2.30;0.50;;;14.60;99.90;;;;;;5097082;27;20544;-83
2021/10/21 01:32:35;;;;;;;5.18;0.50;;;14.60;99.90;;;;;;5107361;28;20498;-83
2021/10/21 01:35:03;;;;;;;2.13;0.40;;;14.60;99.90;;;;;;5097624;28;20027;-84
2021/10/21 01:37:31;;;;;;;3.17;0.50;;;14.50;99.90;;;;;;5114644;28;20496;-83
2021/10/21 01:39:57;;;;;;;4.70;0.40;;;14.50;99.90;;;;;;5089694;28;20030;-84
2021/10/21 01:42:22;;;;;;;1.05;0.20;;;14.40;99.90;;;;;;5114550;28;20019;-83
2021/10/21 01:44:48;;;;;;;3.70;0.30;;;14.30;99.90;;;;;;5113675;28;20046;-83
2021/10/21 01:47:13;;;;;;;3.28;0.40;;;14.20;99.00;;;;;;5096846;28;20031;-83
2021/10/21 01:49:39;;;;;;;3.53;0.20;;;14.10;98.00;;;;;;5087890;28;20073;-82
2021/10/21 01:52:05;;;;;;;2.05;0.30;;;14.00;97.80;;;;;;5095712;28;20019;-83
2021/10/21 01:54:30;;;;;;;3.33;0.38;;;14.00;97.90;;;;;;5087304;28;20082;-82
2021/10/21 01:56:56;;;;;;;2.70;0.30;;;13.90;98.30;;;;;;5078494;28;20100;-83
2021/10/21 01:59:21;;;;;;;2.20;0.13;;;13.80;98.20;;;;;;5092887;28;20035;-84
2021/10/21 02:01:47;;;;;;;3.50;0.35;;;13.70;98.10;;;;;;5093905;28;20467;-82
2021/10/21 02:04:12;;;;;;;5.05;0.20;;;13.60;98.00;;;;;;5095178;28;20040;-82
2021/10/21 02:06:38;;;;;;;1.52;0.20;;;13.60;97.90;;;;;;5092859;28;20023;-82
2021/10/21 02:09:03;;;;;;;3.78;0.32;;;13.50;98.00;;;;;;5112526;28;20054;-82
2021/10/21 02:11:29;;;;;;;3.63;0.28;;;13.40;98.10;;;;;;5113200;28;20019;-82
2021/10/21 02:13:54;;;;;;;4.90;0.35;;;13.30;98.20;;;;;;5121431;27;20023;-82
2021/10/21 02:16:20;;;;;;;2.72;0.10;;;13.10;98.40;;;;;;5102568;28;20364;-82
2021/10/21 02:18:45;;;;;;;4.55;0.40;;;13.10;98.60;;;;;;5113681;28;20368;-83
2021/10/21 02:21:11;;;;;;;2.65;0.20;;;13.00;98.60;;;;;;5102938;28;20028;-83
2021/10/21 02:23:36;;;;;;;1.27;0.10;;;12.90;98.50;;;;;;5086748;28;20419;-82
2021/10/21 02:26:02;;;;;;;7.68;0.30;;;13.00;98.40;;;;;;5112077;28;20068;-82
2021/10/21 02:28:28;;;;;;;2.88;0.20;;;13.00;98.30;;;;;;5124632;27;20023;-82
2021/10/21 02:30:53;;;;;;;8.35;0.30;;;13.00;98.30;;;;;;5103002;28;20027;-83
2021/10/21 02:33:19;;;;;;;1.08;0.10;;;13.00;98.40;;;;;;5088974;28;20983;-83
2021/10/21 02:35:44;;;;;;;2.40;0.82;;;13.00;98.50;;;;;;5080710;28;20026;-82
2021/10/21 02:38:11;;;;;;;4.45;0.20;;;13.00;98.60;;;;;;5104617;28;20066;-82
2021/10/21 02:40:37;;;;;;;1.95;0.10;;;13.00;98.60;;;;;;5112437;28;20027;-82
2021/10/21 02:43:03;;;;;;;4.20;1.30;;;12.90;98.80;;;;;;5112651;28;20036;-83
2021/10/21 02:45:29;;;;;;;2.42;0.13;;;12.90;98.90;;;;;;5112482;28;20466;-83
2021/10/21 02:47:54;;;;;;;2.08;0.20;;;12.90;99.00;;;;;;5112665;28;20027;-82
2021/10/21 02:50:21;;;;;;;4.90;0.20;;;12.90;99.00;;;;;;5110705;28;20399;-82
2021/10/21 02:52:46;;;;;;;1.42;0.10;;;12.90;99.00;;;;;;5113240;28;20490;-82
2021/10/21 02:55:12;;;;;;;3.63;0.20;;;12.90;99.00;;;;;;5112500;28;20028;-81
2021/10/21 02:57:37;;;;;;;7.95;0.40;;;13.00;99.10;;;;;;5116360;27;20382;-83
2021/10/21 03:00:05;;;;;;;2.65;0.20;;;13.00;99.10;;;;;;5088529;27;20405;-83
2021/10/21 03:02:31;;;;;;;6.15;0.22;;;13.00;99.20;;;;;;5095931;28;20491;-82
2021/10/21 03:04:56;;;;;;;4.30;0.20;;;13.10;99.40;;;;;;5087453;28;20059;-83
2021/10/21 03:07:22;;;;;;;3.78;0.20;;;13.10;99.80;;;;;;5078988;28;20026;-83
2021/10/21 03:09:47;;;;;;;4.28;0.20;;;13.00;99.90;;;;;;5094621;28;20020;-83
2021/10/21 03:12:13;;;;;;;0.73;0.10;;;12.90;99.90;;;;;;5075511;28;20012;-83
2021/10/21 03:14:38;;;;;;;1.35;0.20;;;12.80;99.90;;;;;;5084041;28;20434;-83
2021/10/21 03:17:04;;;;;;;3.58;0.22;;;12.70;99.90;;;;;;5083672;28;20459;-82
2021/10/21 03:19:30;;;;;;;1.92;0.32;;;12.70;99.90;;;;;;5112996;28;20031;-83
2021/10/21 03:21:55;;;;;;;2.05;0.17;;;12.60;99.90;;;;;;5095694;28;20027;-83
2021/10/21 03:24:21;;;;;;;4.03;0.77;;;12.60;99.90;;;;;;5089684;27;20036;-82
2021/10/21 03:26:47;;;;;;;4.88;0.32;;;12.60;99.90;;;;;;5108826;28;20483;-83
2021/10/21 03:29:13;;;;;;;1.48;0.30;;;12.60;99.90;;;;;;5105162;28;20115;-83
2021/10/21 03:31:39;;;;;;;1.50;0.25;;;12.60;99.90;;;;;;5090150;28;20047;-83
2021/10/21 03:34:04;;;;;;;4.93;0.30;;;12.60;99.90;;;;;;5101111;28;20400;-84
2021/10/21 03:36:30;;;;;;;4.85;0.40;;;12.60;99.90;;;;;;5108425;28;20463;-82
2021/10/21 03:38:55;;;;;;;2.40;0.20;;;12.60;99.90;;;;;;5091578;28;20118;-82
2021/10/21 03:41:21;;;;;;;4.97;0.40;;;12.50;99.90;;;;;;5104524;28;20060;-82
2021/10/21 03:43:47;;;;;;;3.13;0.20;;;12.50;99.90;;;;;;5111247;28;20407;-82
2021/10/21 03:46:12;;;;;;;4.68;0.98;;;12.50;99.90;;;;;;5099268;28;20042;-82
2021/10/21 03:48:38;;;;;;;2.50;0.25;;;12.50;99.90;;;;;;5099965;28;20028;-82
2021/10/21 03:51:03;;;;;;;3.38;0.35;;;12.40;99.90;;;;;;5111232;28;20016;-83
2021/10/21 03:53:29;;;;;;;3.70;0.30;;;12.40;99.90;;;;;;5107187;28;20024;-82
2021/10/21 03:55:54;;;;;;;3.33;0.30;;;12.40;99.90;;;;;;5093963;28;20071;-83
2021/10/21 03:58:21;;;;;;;1.75;0.20;;;12.50;99.90;;;;;;5092330;28;20031;-82
2021/10/21 04:00:47;;;;;;;4.55;0.40;;;12.40;99.90;;;;;;5097139;28;20024;-82
2021/10/21 04:03:13;;;;;;;2.50;0.20;;;12.50;99.90;;;;;;5074435;28;20038;-83
2021/10/21 04:05:38;;;;;;;2.42;0.20;;;12.40;99.90;;;;;;5095754;28;20394;-82
2021/10/21 04:08:05;;;;;;;3.47;0.30;;;12.40;99.90;;;;;;5107943;28;20024;-83
2021/10/21 04:10:31;;;;;;;2.45;0.30;;;12.40;99.90;;;;;;5086554;28;20032;-83
2021/10/21 04:12:57;;;;;;;2.05;0.30;;;12.40;99.90;;;;;;5093207;28;20024;-83
2021/10/21 04:15:25;;;;;;;4.78;0.40;;;12.30;99.90;;;;;;5110859;28;20475;-82
2021/10/21 04:17:52;;;;;;;3.60;0.32;;;12.30;99.90;;;;;;5112026;28;20024;-82
2021/10/21 04:20:18;;;;;;;2.95;0.20;;;12.30;99.90;;;;;;5089705;28;20062;-83
2021/10/21 04:22:44;;;;;;;2.03;0.28;;;12.20;99.90;;;;;;5104444;28;20051;-83
2021/10/21 04:25:09;;;;;;;3.80;0.30;;;12.10;99.90;;;;;;5097768;28;20031;-83
2021/10/21 04:27:35;;;;;;;3.65;0.22;;;12.10;99.90;;;;;;5090328;28;20015;-83
2021/10/21 04:30:01;;;;;;;4.25;0.50;;;12.00;99.90;;;;;;5093599;28;20084;-82
2021/10/21 04:32:27;;;;;;;5.40;0.30;;;12.00;99.90;;;;;;5109431;28;20560;-82
2021/10/21 04:34:52;;;;;;;9.38;0.52;;;12.00;99.90;;;;;;5086646;28;20059;-83
2021/10/21 04:37:17;;;;;;;3.05;0.30;;;11.90;99.90;;;;;;5087799;28;20505;-82
2021/10/21 04:39:43;;;;;;;5.20;0.40;;;11.90;99.90;;;;;;5094410;28;20020;-83
2021/10/21 04:42:09;;;;;;;3.40;0.40;;;11.90;99.90;;;;;;5107122;28;20027;-83
2021/10/21 04:44:34;;;;;;;3.05;0.30;;;11.90;99.90;;;;;;5093664;28;20045;-83
2021/10/21 04:47:00;;;;;;;7.50;0.38;;;11.90;99.90;;;;;;5075917;28;20028;-83
2021/10/21 04:49:25;;;;;;;2.38;0.20;;;11.80;99.90;;;;;;5084604;28;20028;-83
2021/10/21 04:51:51;;;;;;;3.28;0.30;;;11.90;99.90;;;;;;5094093;28;20020;-83
2021/10/21 04:54:17;;;;;;;2.92;0.25;;;11.80;99.90;;;;;;5091460;28;20023;-83
2021/10/21 04:56:44;;;;;;;2.92;0.30;;;11.80;99.90;;;;;;5102883;28;20024;-84
2021/10/21 04:59:10;;;;;;;2.95;0.20;;;11.80;99.90;;;;;;5108229;28;20027;-84
2021/10/21 05:01:35;;;;;;;3.30;0.25;;;11.80;99.90;;;;;;5092310;28;20034;-83
2021/10/21 05:04:01;;;;;;;6.72;0.80;;;11.80;99.90;;;;;;5105545;28;20407;-82
2021/10/21 05:06:26;;;;;;;5.05;0.22;;;11.90;99.90;;;;;;5092823;28;20114;-83
2021/10/21 05:08:52;;;;;;;3.42;0.20;;;11.80;99.90;;;;;;5090648;28;20032;-83
2021/10/21 05:11:18;;;;;;;5.32;0.30;;;11.80;99.90;;;;;;5090531;28;20030;-83
2021/10/21 05:13:43;;;;;;;2.10;0.20;;;11.80;99.90;;;;;;5081900;28;20059;-83
2021/10/21 05:16:09;;;;;;;3.83;0.30;;;11.80;99.90;;;;;;5087815;28;20055;-84
2021/10/21 05:18:34;;;;;;;2.33;0.30;;;11.70;99.90;;;;;;5090571;28;20122;-83
2021/10/21 05:21:00;;;;;;;3.80;0.30;;;11.70;99.90;;;;;;5091625;28;20059;-84
2021/10/21 05:23:26;;;;;;;3.38;0.40;;;11.70;99.90;;;;;;5076368;28;20032;-84
2021/10/21 05:25:51;;;;;;;4.03;0.30;;;11.60;99.90;;;;;;5090568;28;20520;-84
2021/10/21 05:28:17;;;;;;;3.72;0.30;;;11.60;99.90;;;;;;5091660;28;20028;-84
2021/10/21 05:30:43;;;;;;;4.20;0.40;;;11.60;99.90;;;;;;5092905;28;20026;-85
2021/10/21 05:33:08;;;;;;;5.05;0.35;;;11.60;99.90;;;;;;5093189;28;20467;-84
2021/10/21 05:35:34;;;;;;;2.85;0.82;;;11.50;99.90;;;;;;5092241;28;20392;-84
2021/10/21 05:37:59;;;;;;;2.47;0.40;;;11.50;99.90;;;;;;5093106;28;20058;-83
2021/10/21 05:40:26;;;;;;;4.35;0.40;;;11.50;99.90;;;;;;5109869;28;20022;-84
2021/10/21 05:42:52;;;;;;;1.33;0.13;;;11.30;99.90;;;;;;5078576;28;20474;-83
2021/10/21 05:45:17;;;;;;;1.65;0.10;;;11.20;99.90;;;;;;5088524;28;20031;-84
2021/10/21 05:47:43;;;;;;;0.93;0.03;;;11.00;99.90;;;;;;5098160;28;20464;-83
2021/10/21 05:50:10;;;;;;;0.65;0.10;;;10.80;99.90;;;;;;5094340;28;20030;-83
2021/10/21 05:52:36;;;;;;;0.75;0.00;;;10.70;99.90;;;;;;5090970;28;20032;-84
2021/10/21 05:55:03;;;;;;;0.50;0.00;;;10.50;99.90;;;;;;5113250;28;20161;-83
2021/10/21 05:57:28;;;;;;;2.53;0.00;;;10.50;99.90;;;;;;5087505;28;20028;-84
2021/10/21 05:59:54;;;;;;;2.70;0.10;;;10.40;99.90;;;;;;5094674;28;20031;-84
2021/10/21 06:02:20;;;;;;;1.65;0.10;;;10.40;99.90;;;;;;5112036;28;20046;-84
2021/10/21 06:04:45;;;;;;;1.33;0.10;;;10.40;99.90;;;;;;5092528;28;20097;-84
2021/10/21 06:07:11;;;;;;;1.48;0.13;;;10.40;99.90;;;;;;5097656;28;20032;-84
2021/10/21 06:09:37;;;;;;;1.67;0.10;;;10.40;99.90;;;;;;5113715;28;20040;-84
2021/10/21 06:12:03;;;;;;;1.67;0.10;;;10.40;99.90;;;;;;5094967;28;20063;-84
2021/10/21 06:14:31;;;;;;;1.55;0.20;;;10.30;99.90;;;;;;5091814;28;20056;-84
2021/10/21 06:16:59;;;;;;;1.05;0.10;;;10.30;99.90;;;;;;5112067;28;20081;-84
2021/10/21 06:19:25;;;;;;;2.90;0.15;;;10.20;99.90;;;;;;5095480;28;20027;-85
2021/10/21 06:21:57;;;;;;;2.85;0.20;;;10.20;99.90;;;;;;5093293;28;20536;-85
2021/10/21 06:24:27;;;;;;;2.42;0.20;;;10.10;99.90;;;;;;5090503;28;20070;-85
2021/10/21 06:26:52;;;;;;;3.03;0.30;;;10.10;99.90;;;;;;5108926;27;20024;-84
2021/10/21 06:29:18;;;;;;;2.53;0.22;;;10.10;99.90;;;;;;5087470;28;20127;-84
2021/10/21 06:31:47;;;;;;;5.78;0.35;;;10.00;99.90;;;;;;5091393;28;20536;-85
2021/10/21 06:34:13;;;;;;;4.05;0.30;;;10.00;99.90;;;;;;5095326;28;20026;-85
2021/10/21 06:36:39;;;;;;;2.75;0.20;;;10.10;99.90;;;;;;5094893;28;20027;-85
2021/10/21 06:39:04;;;;;;;5.88;0.20;;;10.10;99.90;;;;;;5095637;28;20019;-85
2021/10/21 06:41:30;;;;;;;4.70;0.30;;;10.10;99.90;;;;;;5096698;28;20024;-85
2021/10/21 06:43:55;;;;;;;8.07;0.57;;;10.10;99.90;;;;;;5098484;28;20036;-85
2021/10/21 06:46:21;;;;;;;9.85;0.55;;;10.10;99.90;;;;;;5074612;28;20032;-85
2021/10/21 06:48:48;;;;;;;4.45;0.52;;;10.20;99.90;;;;;;5077273;28;20024;-86
2021/10/21 06:51:14;;;;;;;12.57;0.70;;;10.20;99.90;;;;;;5077531;28;20035;-85
2021/10/21 06:53:39;;;;;;;11.07;0.52;;;10.20;99.90;;;;;;5072027;28;20028;-86
2021/10/21 06:56:05;;;;;;;10.30;0.60;;;10.20;99.90;;;;;;5072351;28;20129;-86
2021/10/21 06:58:31;;;;;;;10.63;0.80;;;10.20;99.90;;;;;;5074852;28;20047;-85
2021/10/21 07:00:56;;;;;;;5.47;0.40;;;10.20;99.90;;;;;;5085961;28;20024;-86
2021/10/21 07:03:22;;;;;;;6.88;0.40;;;10.30;99.90;;;;;;5068357;28;20059;-85
2021/10/21 07:05:48;;;;;;;11.38;1.10;;;10.30;99.90;;;;;;5068802;28;20024;-85
2021/10/21 07:08:14;;;;;;;10.07;0.60;;;10.30;99.90;;;;;;5068333;28;20031;-85
2021/10/21 07:10:40;;;;;;;9.55;0.70;;;10.30;99.90;;;;;;5071686;28;20028;-84
2021/10/21 07:13:06;;;;;;;5.72;0.35;;;10.40;99.90;;;;;;5076196;28;20024;-85
2021/10/21 07:15:34;;;;;;;7.32;0.60;;;10.40;99.90;;;;;;5093300;28;20035;-86
2021/10/21 07:18:01;;;;;;;12.05;0.73;;;10.50;99.90;;;;;;5067727;28;20020;-86
2021/10/21 07:20:27;;;;;;;7.63;0.50;;;10.50;99.90;;;;;;5070179;28;20068;-86
2021/10/21 07:22:52;;;;;;;8.02;0.47;;;10.60;99.90;;;;;;5058700;28;20024;-84
2021/10/21 07:25:18;;;;;;;6.85;0.50;;;10.60;99.90;;;;;;5063349;28;20396;-87
2021/10/21 07:27:44;;;;;;;9.98;1.33;;;10.70;99.90;;;;;;5075481;28;20024;-86
2021/10/21 07:30:19;;;;;;;11.98;0.68;;;10.70;99.90;;;;;;5075064;28;20035;-85
2021/10/21 07:32:46;;;;;;;5.57;0.50;;;10.80;99.90;;;;;;5072060;28;20024;-86
2021/10/21 07:35:12;;;;;;;8.57;0.50;;;10.70;99.90;;;;;;5062120;28;20078;-86
2021/10/21 07:37:37;;;;;;;5.85;0.82;;;10.60;99.90;;;;;;5066388;28;20042;-86
2021/10/21 07:40:05;;;;;;;11.45;0.93;;;10.60;99.90;;;;;;5077799;28;20030;-86
2021/10/21 07:42:30;;;;;;;10.73;0.80;;;10.50;99.90;;;;;;5074702;28;20020;-86
2021/10/21 07:44:57;;;;;;;10.18;1.10;;;10.50;99.90;;;;;;5082401;28;20407;-87
2021/10/21 07:47:23;;;;;;;12.48;1.00;;;10.50;99.90;;;;;;5090973;28;20053;-86
2021/10/21 07:49:49;;;;;;;9.20;0.85;;;10.60;99.90;;;;;;5074077;28;20037;-86
2021/10/21 07:52:17;;;;;;;11.63;0.73;;;10.60;99.90;;;;;;5108112;28;20028;-86
2021/10/21 07:54:43;;;;;;;11.05;1.02;;;10.70;99.90;;;;;;5082751;28;20024;-86
2021/10/21 07:57:11;;;;;;;11.02;1.15;;;10.70;99.90;;;;;;5087832;28;20080;-86
2021/10/21 07:59:37;;;;;;;13.93;0.95;;;10.70;99.90;;;;;;5067017;28;20115;-85
2021/10/21 08:02:03;;;;;;;9.20;0.60;;;10.70;99.90;;;;;;5074703;28;20171;-85
2021/10/21 08:04:31;;;;;;;7.00;0.60;;;10.80;99.90;;;;;;5069807;28;20067;-85
2021/10/21 08:06:57;;;;;;;7.05;0.40;;;10.90;99.90;;;;;;5089641;28;20032;-85
2021/10/21 08:09:24;;;;;;;11.32;0.70;;;10.90;99.90;;;;;;5072835;28;20028;-86
2021/10/21 08:11:52;;;;;;;7.70;0.60;;;11.00;99.90;;;;;;5072350;28;20023;-86
2021/10/21 08:14:18;;;;;;;8.15;0.57;;;11.10;99.90;;;;;;5089012;28;20027;-85
2021/10/21 08:16:44;;;;;;;7.57;0.50;;;11.10;99.90;;;;;;5091350;28;20027;-85
2021/10/21 08:19:10;;;;;;;7.00;0.70;;;11.10;99.90;;;;;;5073561;28;20085;-85
2021/10/21 08:21:36;;;;;;;8.90;0.80;;;11.10;99.90;;;;;;5064842;28;20388;-86
2021/10/21 08:24:03;;;;;;;8.75;0.50;;;11.10;99.90;;;;;;5074092;28;20086;-85
2021/10/21 08:26:29;;;;;;;6.50;0.93;;;11.20;99.90;;;;;;5091149;28;20125;-86
2021/10/21 08:28:54;;;;;;;8.70;0.82;;;11.30;99.90;;;;;;5060300;28;20025;-85
2021/10/21 08:31:20;;;;;;;12.75;0.68;;;11.30;99.90;;;;;;5082787;28;20052;-85
2021/10/21 08:33:47;;;;;;;6.35;0.50;;;11.40;99.90;;;;;;5085049;28;20426;-85
2021/10/21 08:36:18;;;;;;;5.55;0.40;;;11.40;99.90;;;;;;5072748;28;20021;-86
2021/10/21 08:38:44;;;;;;;10.05;0.90;;;11.50;99.90;;;;;;5089389;28;20035;-85
2021/10/21 08:41:11;;;;;;;8.30;0.77;;;11.50;99.90;;;;;;5075195;28;20028;-85
2021/10/21 08:43:37;;;;;;;8.63;0.85;;;11.60;99.90;;;;;;5071903;28;20052;-85
2021/10/21 08:46:03;;;;;;;10.57;0.70;;;11.60;99.90;;;;;;5092475;28;20548;-85
2021/10/21 08:48:30;;;;;;;8.30;0.50;;;11.60;99.90;;;;;;5092141;28;20024;-86
2021/10/21 08:50:57;;;;;;;6.30;0.50;;;11.70;99.90;;;;;;5093730;28;20105;-86
2021/10/21 08:53:26;;;;;;;7.07;0.60;;;11.40;99.90;;;;;;5081150;28;20031;-87
2021/10/21 08:55:53;;;;;;;7.05;0.68;;;11.00;99.90;;;;;;5104205;28;20108;-86
2021/10/21 08:58:19;;;;;;;7.50;0.60;;;10.80;99.90;;;;;;5073194;28;20032;-85
2021/10/21 09:00:51;;;;;;;7.35;0.63;;;10.70;99.90;;;;;;5076159;28;20302;-87
2021/10/21 09:03:40;;;;;;;10.02;0.98;;;10.70;99.90;;;;;;5080339;28;20518;-87
2021/10/21 09:06:48;;;;;;;9.70;0.80;;;10.60;99.90;;;;;;5087510;28;20023;-87
2021/10/21 09:08:57;;;;;;;10.45;0.50;;;10.50;99.90;;;;;;5077725;28;20040;-86
2021/10/21 09:11:23;;;;;;;8.35;0.50;;;10.40;99.90;;;;;;5091006;28;20411;-87
2021/10/21 09:14:08;;;;;;;6.28;0.45;;;10.40;99.90;;;;;;5109799;28;20434;-87
2021/10/21 09:16:33;;;;;;;9.15;0.55;;;10.30;99.90;;;;;;5104649;28;20020;-87
2021/10/21 09:19:11;;;;;;;11.23;1.05;;;10.30;99.90;;;;;;5095877;28;20033;-87
2021/10/21 09:21:39;;;;;;;6.88;0.93;;;10.30;99.90;;;;;;5085973;28;20024;-87
2021/10/21 09:24:26;;;;;;;7.45;0.40;;;10.30;99.90;;;;;;5104605;28;20032;-86
2021/10/21 09:27:08;;;;;;;12.30;1.13;;;10.30;99.90;;;;;;5096499;28;20078;-87
2021/10/21 09:29:55;;;;;;;7.95;0.80;;;10.40;99.90;;;;;;5097651;28;20406;-87
2021/10/21 09:32:24;;;;;;;6.70;0.50;;;10.30;99.90;;;;;;5104959;28;20040;-87
2021/10/21 09:34:55;;;;;;;4.10;0.40;;;10.30;99.90;;;;;;5091501;28;20020;-87
2021/10/21 09:37:25;;;;;;;10.25;0.60;;;10.40;99.90;;;;;;5113287;28;20047;-87
2021/10/21 09:39:56;;;;;;;9.63;0.50;;;10.40;99.90;;;;;;5114063;28;20027;-87
2021/10/21 09:42:26;;;;;;;7.28;0.45;;;10.50;99.90;;;;;;5111309;28;20507;-87
2021/10/21 09:45:13;;;;;;;5.55;0.55;;;10.50;99.90;;;;;;5113781;28;20059;-86
2021/10/21 09:47:43;;;;;;;10.85;0.60;;;10.50;99.90;;;;;;5113191;28;20024;-86
2021/10/21 09:50:34;;;;;;;7.93;0.70;;;10.50;99.90;;;;;;5093009;28;20029;-87
2021/10/21 09:53:22;;;;;;;7.60;0.50;;;10.50;99.90;;;;;;5108917;28;20024;-87
2021/10/21 09:55:52;;;;;;;4.57;0.50;;;10.70;99.90;;;;;;5095328;28;20055;-86
2021/10/21 09:58:25;;;;;;;7.28;0.85;;;10.60;99.90;;;;;;5090696;28;20054;-86
2021/10/21 10:00:51;;;;;;;4.60;0.43;;;10.70;99.90;;;;;;5113401;28;20472;-87
2021/10/21 10:03:21;;;;;;;5.25;0.40;;;10.70;99.90;;;;;;5105657;28;20048;-87
2021/10/21 10:05:54;;;;;;;5.22;0.35;;;10.80;99.90;;;;;;5116652;28;20024;-87
2021/10/21 10:08:21;;;;;;;4.75;0.30;;;10.90;99.90;;;;;;5097587;28;20383;-87
2021/10/21 10:10:49;;;;;;;2.58;0.40;;;11.00;99.90;;;;;;5086150;28;20189;-88
2021/10/21 10:13:17;;;;;;;5.97;0.60;;;11.10;99.90;;;;;;5101929;28;20091;-85
2021/10/21 10:15:44;;;;;;;4.35;0.30;;;11.10;99.90;;;;;;5088527;28;20024;-86
2021/10/21 10:18:19;;;;;;;7.18;1.33;;;11.20;99.90;;;;;;5112715;28;20435;-86
2021/10/21 10:20:51;;;;;;;4.60;1.05;;;11.20;99.90;;;;;;5105075;28;20020;-86
2021/10/21 10:23:18;;;;;;;3.15;0.40;;;11.30;99.90;;;;;;5087434;28;20032;-85
2021/10/21 10:25:46;;;;;;;6.30;0.50;;;11.30;99.90;;;;;;5114993;28;20028;-85
2021/10/21 10:28:12;;;;;;;5.07;0.93;;;11.40;99.90;;;;;;5111987;28;20114;-86
2021/10/21 10:30:46;;;;;;;9.23;0.68;;;11.60;99.90;;;;;;5110933;28;20082;-84
2021/10/21 10:33:13;;;;;;;8.73;1.00;;;11.70;99.90;;;;;;5110498;28;20032;-84
2021/10/21 10:35:41;;;;;;;8.18;0.60;;;11.70;99.90;;;;;;5087751;28;20028;-85
2021/10/21 10:38:08;;;;;;;8.75;0.52;;;11.80;99.90;;;;;;5094164;28;20024;-84
2021/10/21 10:40:45;;;;;;;6.13;0.55;;;11.80;99.90;;;;;;5095208;28;20494;-83
2021/10/21 10:43:13;;;;;;;9.48;0.57;;;11.90;99.90;;;;;;5115267;28;20044;-84
2021/10/21 10:45:45;;;;;;;10.18;0.65;;;12.10;99.90;;;;;;5099412;28;20379;-84
2021/10/21 10:48:12;;;;;;;6.20;0.40;;;12.30;99.90;;;;;;5098434;28;20028;-85
2021/10/21 10:50:43;;;;;;;6.63;0.60;;;12.40;99.90;;;;;;5097670;28;20032;-85
2021/10/21 10:53:09;;;;;;;9.45;1.15;;;12.50;99.90;;;;;;5115577;27;20383;-85
2021/10/21 10:55:46;;;;;;;6.88;0.50;;;12.60;99.90;;;;;;5091269;28;20020;-84
2021/10/21 10:58:23;;;;;;;4.53;0.40;;;12.70;99.90;;;;;;5101763;28;20076;-84
2021/10/21 11:00:51;;;;;;;9.02;0.95;;;12.60;99.90;;;;;;5111787;28;20051;-84
2021/10/21 11:03:33;;;;;;;7.63;0.50;;;12.60;99.90;;;;;;5097342;28;20046;-84
2021/10/21 11:06:08;;;;;;;7.13;0.40;;;12.60;99.90;;;;;;5097476;28;20020;-85
2021/10/21 11:08:58;;;;;;;5.45;0.70;;;12.60;99.90;;;;;;5097775;28;20387;-84
2021/10/21 11:11:43;;;;;;;14.63;0.60;;;12.60;99.90;;;;;;5077669;28;20031;-84
2021/10/21 11:14:12;;;;;;;3.45;0.40;;;12.60;99.90;;;;;;5096846;28;20028;-85
2021/10/21 11:16:43;;;;;;;7.13;0.50;;;12.70;99.90;;;;;;5089801;28;20035;-84
2021/10/21 11:19:12;;;;;;;7.50;0.50;;;12.60;99.90;;;;;;5094260;28;20043;-84
2021/10/21 11:21:54;;;;;;;3.42;0.57;;;12.50;99.90;;;;;;5109323;28;20491;-83
2021/10/21 11:24:48;;;;;;;7.47;0.50;;;12.50;99.90;;;;;;5092355;28;20075;-83
2021/10/21 11:27:26;;;;;;;6.18;0.50;;;12.40;99.90;;;;;;5113369;28;20027;-83
2021/10/21 11:29:53;;;;;;;5.47;0.60;;;12.20;99.90;;;;;;5091129;28;20080;-83
2021/10/21 11:32:19;;;;;;;4.90;0.70;;;12.20;99.90;;;;;;5078347;28;20067;-83
2021/10/21 11:34:49;;;;;;;4.90;0.40;;;12.30;99.90;;;;;;5092924;28;20030;-84
2021/10/21 11:37:32;;;;;;;4.90;0.90;;;12.40;99.90;;;;;;5088695;28;20106;-83
2021/10/21 11:39:57;;;;;;;6.60;0.70;;;12.40;99.90;;;;;;5096239;28;20030;-83
2021/10/21 11:42:27;;;;;;;4.75;0.60;;;12.40;99.90;;;;;;5095948;28;20035;-85
2021/10/21 11:45:03;;;;;;;4.35;0.30;;;12.40;99.90;;;;;;5077168;28;20103;-85
2021/10/21 11:47:28;;;;;;;7.28;0.32;;;12.30;99.90;;;;;;5076710;28;20020;-85
2021/10/21 11:49:56;;;;;;;5.40;0.40;;;12.20;99.90;;;;;;5093963;28;20031;-84
2021/10/21 11:52:35;;;;;;;5.20;0.40;;;12.30;99.90;;;;;;5075980;28;20031;-83
2021/10/21 11:55:01;;;;;;;3.22;0.30;;;12.30;99.90;;;;;;5093007;28;20039;-84
2021/10/21 11:57:31;;;;;;;1.48;0.10;;;12.30;99.90;;;;;;5094076;28;20025;-84
2021/10/21 11:59:57;;;;;;;1.15;0.35;;;11.90;99.90;;;;;;5063397;28;20024;-84
2021/10/21 12:02:30;;;;;;;1.42;0.10;;;11.40;99.90;;;;;;5092163;28;20388;-85
2021/10/21 12:04:57;;;;;;;0.95;0.10;;;10.90;99.90;;;;;;5072120;28;20055;-85
2021/10/21 12:07:23;;;;;;;1.30;0.10;;;10.40;99.90;;;;;;5075541;28;20088;-84
2021/10/21 12:09:50;;;;;;;5.07;0.50;;;10.00;99.90;;;;;;5082958;28;20035;-84
2021/10/21 12:12:15;;;;;;;2.45;0.10;;;9.70;99.90;;;;;;5073191;28;20035;-84
2021/10/21 12:14:43;;;;;;;4.25;0.20;;;9.50;99.90;;;;;;5084654;28;20051;-84
2021/10/21 12:17:10;;;;;;;2.63;0.10;;;9.40;99.90;;;;;;5076205;28;20459;-84
2021/10/21 12:19:38;;;;;;;2.50;0.15;;;9.30;99.90;;;;;;5077319;28;20028;-85
2021/10/21 12:22:18;;;;;;;2.05;0.10;;;9.20;99.90;;;;;;5067798;28;20157;-86
2021/10/21 12:24:45;;;;;;;2.63;0.20;;;9.10;99.90;;;;;;5075730;28;20391;-86
2021/10/21 12:27:19;;;;;;;5.55;0.43;;;9.20;99.90;;;;;;5092672;28;20541;-86
2021/10/21 12:29:45;;;;;;;2.05;0.20;;;9.20;99.90;;;;;;5075062;28;20541;-86
2021/10/21 12:32:12;;;;;;;2.70;0.20;;;9.10;99.90;;;;;;5074609;28;20032;-85
2021/10/21 12:34:38;;;;;;;2.67;0.15;;;9.10;99.90;;;;;;5093342;28;20123;-85
2021/10/21 12:37:11;;;;;;;4.38;0.10;;;9.00;99.90;;;;;;5075819;28;20016;-86
2021/10/21 12:39:37;;;;;;;5.65;0.20;;;9.00;99.90;;;;;;5076154;28;20077;-85
2021/10/21 12:42:17;;;;;;;6.15;0.20;;;8.90;99.90;;;;;;5074866;28;20028;-85
2021/10/21 12:44:44;;;;;;;7.57;0.75;;;8.90;99.90;;;;;;5067596;28;20139;-85
2021/10/21 12:47:25;;;;;;;4.05;0.22;;;8.90;99.90;;;;;;5062098;28;20012;-85
2021/10/21 12:50:00;;;;;;;7.32;0.38;;;8.90;99.90;;;;;;5076335;28;20050;-86